sensor_id;sensor_type;location;lat;lon;timestamp;pressure;altitude;pressure_sealevel;temperature;humidity
76404;BME280;65232;48.358;2.122;2023-04-30T00:00:16;101318.63;;;11.01;73.77
76404;BME280;65232;48.358;2.122;2023-04-30T00:00:42;101311.47;;;11.02;73.86
76404;BME280;65232;48.358;2.122;2023-04-30T00:01:07;101308.03;;;11.00;74.15
76404;BME280;65232;48.358;2.122;2023-04-30T00:01:33;101308.03;;;11.00;73.89
76404;BME280;65232;48.358;2.122;2023-04-30T00:01:58;101310.72;;;11.00;73.63
76404;BME280;65232;48.358;2.122;2023-04-30T00:02:24;101310.00;;;10.98;73.97
76404;BME280;65232;48.358;2.122;2023-04-30T00:02:49;101316.56;;;10.93;73.86
76404;BME280;65232;48.358;2.122;2023-04-30T00:03:14;101311.31;;;10.92;73.84
76404;BME280;65232;48.358;2.122;2023-04-30T00:03:40;101301.03;;;11.10;73.35
76404;BME280;65232;48.358;2.122;2023-04-30T00:04:05;101305.75;;;11.06;73.01
76404;BME280;65232;48.358;2.122;2023-04-30T00:04:31;101304.78;;;11.07;73.16
76404;BME280;65232;48.358;2.122;2023-04-30T00:04:56;101304.16;;;11.04;73.34
76404;BME280;65232;48.358;2.122;2023-04-30T00:05:22;101304.16;;;11.04;73.26
76404;BME280;65232;48.358;2.122;2023-04-30T00:05:49;101310.59;;;11.01;73.46
76404;BME280;65232;48.358;2.122;2023-04-30T00:06:15;101308.28;;;10.97;73.53
76404;BME280;65232;48.358;2.122;2023-04-30T00:06:41;101301.97;;;10.98;73.51
76404;BME280;65232;48.358;2.122;2023-04-30T00:07:06;101309.84;;;10.99;73.41
76404;BME280;65232;48.358;2.122;2023-04-30T00:07:32;101308.28;;;10.97;73.61
76404;BME280;65232;48.358;2.122;2023-04-30T00:07:58;101309.16;;;10.97;73.60
76404;BME280;65232;48.358;2.122;2023-04-30T00:08:23;101310.50;;;11.03;74.36
76404;BME280;65232;48.358;2.122;2023-04-30T00:08:48;101310.59;;;11.01;74.33
76404;BME280;65232;48.358;2.122;2023-04-30T00:09:14;101309.84;;;10.99;74.28
76404;BME280;65232;48.358;2.122;2023-04-30T00:09:39;101310.00;;;10.98;74.70
76404;BME280;65232;48.358;2.122;2023-04-30T00:10:05;101306.59;;;10.95;74.75
76404;BME280;65232;48.358;2.122;2023-04-30T00:10:31;101310.97;;;10.97;74.67
76404;BME280;65232;48.358;2.122;2023-04-30T00:10:56;101312.91;;;10.94;74.89
76404;BME280;65232;48.358;2.122;2023-04-30T00:11:22;101315.69;;;10.93;74.97
76404;BME280;65232;48.358;2.122;2023-04-30T00:11:47;101308.53;;;10.93;74.88
76404;BME280;65232;48.358;2.122;2023-04-30T00:12:13;101306.81;;;10.92;74.83
76404;BME280;65232;48.358;2.122;2023-04-30T00:12:38;101307.66;;;10.93;74.77
76404;BME280;65232;48.358;2.122;2023-04-30T00:13:04;101310.56;;;10.90;74.88
76404;BME280;65232;48.358;2.122;2023-04-30T00:13:29;101307.91;;;10.90;74.84
76404;BME280;65232;48.358;2.122;2023-04-30T00:13:54;101307.66;;;10.93;74.76
76404;BME280;65232;48.358;2.122;2023-04-30T00:14:21;101310.22;;;10.94;74.97
76404;BME280;65232;48.358;2.122;2023-04-30T00:14:46;101307.66;;;10.93;75.11
76404;BME280;65232;48.358;2.122;2023-04-30T00:15:12;101311.53;;;10.89;75.42
76404;BME280;65232;48.358;2.122;2023-04-30T00:15:37;101311.53;;;10.89;75.74
76404;BME280;65232;48.358;2.122;2023-04-30T00:16:03;101304.25;;;10.91;75.61
76404;BME280;65232;48.358;2.122;2023-04-30T00:16:28;101305.97;;;10.92;75.58
76404;BME280;65232;48.358;2.122;2023-04-30T00:16:54;101302.78;;;10.87;75.58
76404;BME280;65232;48.358;2.122;2023-04-30T00:17:19;101298.25;;;10.87;75.40
76404;BME280;65232;48.358;2.122;2023-04-30T00:17:45;101308.00;;;10.88;75.58
76404;BME280;65232;48.358;2.122;2023-04-30T00:18:10;101305.09;;;10.91;75.52
76404;BME280;65232;48.358;2.122;2023-04-30T00:18:36;101311.03;;;10.84;75.95
76404;BME280;65232;48.358;2.122;2023-04-30T00:19:02;101308.50;;;10.82;76.41
76404;BME280;65232;48.358;2.122;2023-04-30T00:19:27;101305.94;;;10.81;76.41
76404;BME280;65232;48.358;2.122;2023-04-30T00:19:53;101301.66;;;10.78;76.28
76404;BME280;65232;48.358;2.122;2023-04-30T00:20:18;101302.41;;;10.80;76.22
76404;BME280;65232;48.358;2.122;2023-04-30T00:20:44;101301.31;;;10.83;76.08
76404;BME280;65232;48.358;2.122;2023-04-30T00:21:09;101303.63;;;10.87;75.67
76404;BME280;65232;48.358;2.122;2023-04-30T00:21:35;101296.94;;;10.82;75.62
76404;BME280;65232;48.358;2.122;2023-04-30T00:22:00;101309.47;;;10.81;75.71
76404;BME280;65232;48.358;2.122;2023-04-30T00:22:26;101302.41;;;10.80;75.67
76404;BME280;65232;48.358;2.122;2023-04-30T00:22:51;101306.50;;;10.73;75.33
76404;BME280;65232;48.358;2.122;2023-04-30T00:23:17;101297.59;;;10.73;75.55
76404;BME280;65232;48.358;2.122;2023-04-30T00:23:42;101298.47;;;10.73;75.55
76404;BME280;65232;48.358;2.122;2023-04-30T00:24:08;101297.59;;;10.73;75.61
76404;BME280;65232;48.358;2.122;2023-04-30T00:24:33;101306.72;;;10.70;75.50
76404;BME280;65232;48.358;2.122;2023-04-30T00:24:58;101296.88;;;10.71;75.89
76404;BME280;65232;48.358;2.122;2023-04-30T00:25:24;101299.53;;;10.71;75.75
76404;BME280;65232;48.358;2.122;2023-04-30T00:25:49;101302.09;;;10.72;76.01
76404;BME280;65232;48.358;2.122;2023-04-30T00:26:15;101295.63;;;10.64;75.99
76404;BME280;65232;48.358;2.122;2023-04-30T00:26:44;101299.50;;;10.59;75.97
76404;BME280;65232;48.358;2.122;2023-04-30T00:27:10;101298.75;;;10.57;75.93
76404;BME280;65232;48.358;2.122;2023-04-30T00:27:35;101296.19;;;10.56;76.24
76404;BME280;65232;48.358;2.122;2023-04-30T00:28:01;101292.56;;;10.57;76.52
76404;BME280;65232;48.358;2.122;2023-04-30T00:28:26;101286.22;;;10.58;76.48
76404;BME280;65232;48.358;2.122;2023-04-30T00:28:52;101300.56;;;10.57;77.58
76404;BME280;65232;48.358;2.122;2023-04-30T00:29:17;101296.94;;;10.58;77.72
76404;BME280;65232;48.358;2.122;2023-04-30T00:29:43;101300.34;;;10.60;77.14
76404;BME280;65232;48.358;2.122;2023-04-30T00:30:09;101291.25;;;10.63;76.74
76404;BME280;65232;48.358;2.122;2023-04-30T00:30:34;101297.34;;;10.65;76.32
76404;BME280;65232;48.358;2.122;2023-04-30T00:31:00;101292.09;;;10.63;75.99
76404;BME280;65232;48.358;2.122;2023-04-30T00:31:25;101298.31;;;10.64;76.10
76404;BME280;65232;48.358;2.122;2023-04-30T00:31:51;101298.66;;;10.59;76.62
76404;BME280;65232;48.358;2.122;2023-04-30T00:32:16;101295.84;;;10.60;76.85
76404;BME280;65232;48.358;2.122;2023-04-30T00:32:42;101302.06;;;10.61;76.84
76404;BME280;65232;48.358;2.122;2023-04-30T00:33:10;101295.84;;;10.60;76.83
76404;BME280;65232;48.358;2.122;2023-04-30T00:33:35;101292.00;;;10.65;76.99
76404;BME280;65232;48.358;2.122;2023-04-30T00:34:00;101298.09;;;10.67;76.25
76404;BME280;65232;48.358;2.122;2023-04-30T00:34:26;101292.72;;;10.67;76.12
76404;BME280;65232;48.358;2.122;2023-04-30T00:34:51;101296.38;;;10.66;76.05
76404;BME280;65232;48.358;2.122;2023-04-30T00:35:17;101287.81;;;10.60;76.74
76404;BME280;65232;48.358;2.122;2023-04-30T00:35:42;101291.59;;;10.58;76.85
76404;BME280;65232;48.358;2.122;2023-04-30T00:36:07;101290.63;;;10.59;76.81
76404;BME280;65232;48.358;2.122;2023-04-30T00:36:33;101284.28;;;10.60;76.67
76404;BME280;65232;48.358;2.122;2023-04-30T00:36:58;101294.03;;;10.61;76.10
76404;BME280;65232;48.358;2.122;2023-04-30T00:37:24;101289.66;;;10.60;76.07
76404;BME280;65232;48.358;2.122;2023-04-30T00:37:49;101298.41;;;10.62;76.31
76404;BME280;65232;48.358;2.122;2023-04-30T00:38:15;101292.22;;;10.62;76.46
76404;BME280;65232;48.358;2.122;2023-04-30T00:38:40;101295.13;;;10.58;76.48
76404;BME280;65232;48.358;2.122;2023-04-30T00:39:06;101292.97;;;10.64;76.40
76404;BME280;65232;48.358;2.122;2023-04-30T00:39:31;101292.84;;;10.65;77.01
76404;BME280;65232;48.358;2.122;2023-04-30T00:39:57;101292.72;;;10.67;76.63
76404;BME280;65232;48.358;2.122;2023-04-30T00:40:22;101292.09;;;10.63;76.65
76404;BME280;65232;48.358;2.122;2023-04-30T00:40:48;101294.66;;;10.65;76.87
76404;BME280;65232;48.358;2.122;2023-04-30T00:41:13;101297.56;;;10.62;76.89
76404;BME280;65232;48.358;2.122;2023-04-30T00:41:39;101291.47;;;10.59;76.93
76404;BME280;65232;48.358;2.122;2023-04-30T00:42:05;101290.72;;;10.57;77.15
76404;BME280;65232;48.358;2.122;2023-04-30T00:42:31;101290.72;;;10.57;77.01
76404;BME280;65232;48.358;2.122;2023-04-30T00:42:56;101294.38;;;10.56;76.86
76404;BME280;65232;48.358;2.122;2023-04-30T00:43:22;101290.50;;;10.60;76.90
76404;BME280;65232;48.358;2.122;2023-04-30T00:43:47;101285.91;;;10.63;76.73
76404;BME280;65232;48.358;2.122;2023-04-30T00:44:13;101287.59;;;10.64;76.80
76404;BME280;65232;48.358;2.122;2023-04-30T00:44:38;101293.19;;;10.60;76.63
76404;BME280;65232;48.358;2.122;2023-04-30T00:45:04;101289.75;;;10.58;76.77
76404;BME280;65232;48.358;2.122;2023-04-30T00:45:30;101289.28;;;10.53;76.96
76404;BME280;65232;48.358;2.122;2023-04-30T00:45:56;101293.63;;;10.54;77.44
76404;BME280;65232;48.358;2.122;2023-04-30T00:46:22;101289.28;;;10.53;76.94
76404;BME280;65232;48.358;2.122;2023-04-30T00:46:48;101286.59;;;10.53;76.78
76404;BME280;65232;48.358;2.122;2023-04-30T00:47:14;101292.06;;;10.52;76.68
76404;BME280;65232;48.358;2.122;2023-04-30T00:47:39;101283.19;;;10.51;76.68
76404;BME280;65232;48.358;2.122;2023-04-30T00:48:05;101281.34;;;10.52;76.61
76404;BME280;65232;48.358;2.122;2023-04-30T00:48:31;101283.28;;;10.50;76.89
76404;BME280;65232;48.358;2.122;2023-04-30T00:48:57;101285.00;;;10.51;76.85
76404;BME280;65232;48.358;2.122;2023-04-30T00:49:22;101286.81;;;10.50;77.21
76404;BME280;65232;48.358;2.122;2023-04-30T00:49:48;101283.06;;;10.53;77.38
76404;BME280;65232;48.358;2.122;2023-04-30T00:50:14;101286.59;;;10.53;77.42
76404;BME280;65232;48.358;2.122;2023-04-30T00:50:43;101278.44;;;10.55;77.30
76404;BME280;65232;48.358;2.122;2023-04-30T00:51:09;101287.31;;;10.55;77.12
76404;BME280;65232;48.358;2.122;2023-04-30T00:51:35;101281.25;;;10.53;77.32
76404;BME280;65232;48.358;2.122;2023-04-30T00:52:02;101282.53;;;10.48;77.39
76404;BME280;65232;48.358;2.122;2023-04-30T00:52:28;101282.31;;;10.51;77.52
76404;BME280;65232;48.358;2.122;2023-04-30T00:52:53;101280.72;;;10.48;77.62
76404;BME280;65232;48.358;2.122;2023-04-30T00:53:20;101285.44;;;10.45;77.15
76404;BME280;65232;48.358;2.122;2023-04-30T00:53:45;101288.13;;;10.45;77.01
76404;BME280;65232;48.358;2.122;2023-04-30T00:54:11;101286.31;;;10.45;77.17
76404;BME280;65232;48.358;2.122;2023-04-30T00:54:37;101286.06;;;10.48;77.54
76404;BME280;65232;48.358;2.122;2023-04-30T00:55:02;101280.72;;;10.48;77.54
76404;BME280;65232;48.358;2.122;2023-04-30T00:55:28;101285.09;;;10.49;77.52
76404;BME280;65232;48.358;2.122;2023-04-30T00:55:54;101279.53;;;10.52;77.63
76404;BME280;65232;48.358;2.122;2023-04-30T00:56:20;101280.25;;;10.54;77.41
76404;BME280;65232;48.358;2.122;2023-04-30T00:56:46;101283.28;;;10.50;77.37
76404;BME280;65232;48.358;2.122;2023-04-30T00:57:11;101284.25;;;10.49;77.08
76404;BME280;65232;48.358;2.122;2023-04-30T00:57:40;101290.41;;;10.38;77.65
76404;BME280;65232;48.358;2.122;2023-04-30T00:58:06;101277.91;;;10.39;77.95
76404;BME280;65232;48.358;2.122;2023-04-30T00:58:32;101282.88;;;10.43;77.87
76404;BME280;65232;48.358;2.122;2023-04-30T00:58:58;101283.94;;;10.41;78.29
76404;BME280;65232;48.358;2.122;2023-04-30T00:59:24;101287.22;;;10.33;78.60
76404;BME280;65232;48.358;2.122;2023-04-30T00:59:49;101286.19;;;10.23;79.35
76404;BME280;65232;48.358;2.122;2023-04-30T01:00:16;101288.97;;;10.21;79.20
76404;BME280;65232;48.358;2.122;2023-04-30T01:00:43;101287.47;;;10.17;79.08
76404;BME280;65232;48.358;2.122;2023-04-30T01:01:11;101280.69;;;10.24;79.12
76404;BME280;65232;48.358;2.122;2023-04-30T01:01:37;101278.66;;;10.28;79.22
76404;BME280;65232;48.358;2.122;2023-04-30T01:02:03;101282.41;;;10.25;79.41
76404;BME280;65232;48.358;2.122;2023-04-30T01:02:29;101287.75;;;10.25;nan
76404;BME280;65232;48.358;2.122;2023-04-30T01:02:54;101288.03;;;10.22;79.24
76404;BME280;65232;48.358;2.122;2023-04-30T01:03:21;101285.94;;;10.26;79.27
76404;BME280;65232;48.358;2.122;2023-04-30T01:03:47;101286.31;;;10.21;79.25
76404;BME280;65232;48.358;2.122;2023-04-30T01:04:12;101290.69;;;10.22;79.41
76404;BME280;65232;48.358;2.122;2023-04-30T01:04:38;101287.06;;;10.23;79.21
76404;BME280;65232;48.358;2.122;2023-04-30T01:05:03;101280.00;;;10.22;79.32
76404;BME280;65232;48.358;2.122;2023-04-30T01:05:31;101285.44;;;10.21;79.23
76404;BME280;65232;48.358;2.122;2023-04-30T01:05:56;101274.41;;;10.13;79.79
76404;BME280;65232;48.358;2.122;2023-04-30T01:06:23;101283.41;;;10.12;79.94
76404;BME280;65232;48.358;2.122;2023-04-30T01:06:50;101285.97;;;10.13;79.84
76404;BME280;65232;48.358;2.122;2023-04-30T01:07:16;101283.41;;;10.12;79.90
76404;BME280;65232;48.358;2.122;2023-04-30T01:07:42;101281.94;;;10.08;79.99
76404;BME280;65232;48.358;2.122;2023-04-30T01:08:10;101279.25;;;10.08;80.13
76404;BME280;65232;48.358;2.122;2023-04-30T01:08:36;101283.13;;;10.04;80.00
76404;BME280;65232;48.358;2.122;2023-04-30T01:09:02;101277.03;;;10.02;80.09
76404;BME280;65232;48.358;2.122;2023-04-30T01:09:28;101277.03;;;10.02;79.96
76404;BME280;65232;48.358;2.122;2023-04-30T01:09:54;101278.41;;;10.07;79.91
76404;BME280;65232;48.358;2.122;2023-04-30T01:10:21;101284.72;;;10.06;79.87
76404;BME280;65232;48.358;2.122;2023-04-30T01:10:54;101274.03;;;10.06;79.71
76404;BME280;65232;48.358;2.122;2023-04-30T01:13:36;101271.81;;;9.87;79.75
76404;BME280;65232;48.358;2.122;2023-04-30T01:14:07;101273.06;;;9.95;79.72
76404;BME280;65232;48.358;2.122;2023-04-30T01:16:14;101267.41;;;9.99;79.11
76404;BME280;65232;48.358;2.122;2023-04-30T01:17:15;101266.16;;;9.92;79.02
76404;BME280;65232;48.358;2.122;2023-04-30T01:17:50;101272.25;;;9.94;78.88
76404;BME280;65232;48.358;2.122;2023-04-30T01:18:27;101265.69;;;9.98;78.60
76404;BME280;65232;48.358;2.122;2023-04-30T01:19:08;101273.59;;;10.00;78.70
76404;BME280;65232;48.358;2.122;2023-04-30T01:19:43;101262.53;;;9.93;78.98
76404;BME280;65232;48.358;2.122;2023-04-30T01:20:10;101264.34;;;9.93;79.21
76404;BME280;65232;48.358;2.122;2023-04-30T01:21:26;101263.38;;;9.94;78.98
76404;BME280;65232;48.358;2.122;2023-04-30T01:21:34;101265.59;;;10.00;78.96
76404;BME280;65232;48.358;2.122;2023-04-30T01:22:03;101266.53;;;9.99;78.94
76404;BME280;65232;48.358;2.122;2023-04-30T01:22:35;101261.94;;;10.01;78.95
76404;BME280;65232;48.358;2.122;2023-04-30T01:26:52;101259.63;;;9.83;79.96
76404;BME280;65232;48.358;2.122;2023-04-30T01:27:47;101258.88;;;9.81;80.23
76404;BME280;65232;48.358;2.122;2023-04-30T01:28:16;101261.44;;;9.83;80.40
76404;BME280;65232;48.358;2.122;2023-04-30T01:28:45;101255.03;;;9.85;80.34
76404;BME280;65232;48.358;2.122;2023-04-30T01:29:11;101259.53;;;9.85;80.57
76404;BME280;65232;48.358;2.122;2023-04-30T01:29:38;101260.59;;;9.82;80.62
76404;BME280;65232;48.358;2.122;2023-04-30T01:30:06;101269.59;;;9.81;80.90
76404;BME280;65232;48.358;2.122;2023-04-30T01:30:34;101259.13;;;9.78;81.19
76404;BME280;65232;48.358;2.122;2023-04-30T01:31:00;101267.25;;;9.77;81.20
76404;BME280;65232;48.358;2.122;2023-04-30T01:31:27;101263.84;;;9.75;81.34
76404;BME280;65232;48.358;2.122;2023-04-30T01:31:52;101265.75;;;9.73;81.51
76404;BME280;65232;48.358;2.122;2023-04-30T01:32:18;101264.16;;;9.70;81.35
76404;BME280;65232;48.358;2.122;2023-04-30T01:32:43;101265.13;;;9.69;81.40
76404;BME280;65232;48.358;2.122;2023-04-30T01:33:10;101269.50;;;9.70;81.38
76404;BME280;65232;48.358;2.122;2023-04-30T01:33:35;101268.00;;;9.66;81.22
76404;BME280;65232;48.358;2.122;2023-04-30T01:34:01;101265.03;;;9.58;81.50
76404;BME280;65232;48.358;2.122;2023-04-30T01:34:26;101266.00;;;9.57;81.61
76404;BME280;65232;48.358;2.122;2023-04-30T01:34:52;101268.34;;;9.62;81.46
76404;BME280;65232;48.358;2.122;2023-04-30T01:35:17;101270.06;;;9.63;81.49
76404;BME280;65232;48.358;2.122;2023-04-30T01:37:27;101271.91;;;9.49;81.99
76404;BME280;65232;48.358;2.122;2023-04-30T01:39:10;101276.72;;;9.44;82.13
76404;BME280;65232;48.358;2.122;2023-04-30T01:39:14;101270.50;;;9.44;82.06
76404;BME280;65232;48.358;2.122;2023-04-30T01:41:28;101267.09;;;9.42;81.91
76404;BME280;65232;48.358;2.122;2023-04-30T01:42:41;101275.22;;;9.40;81.95
76404;BME280;65232;48.358;2.122;2023-04-30T01:43:21;101269.22;;;9.37;82.05
76404;BME280;65232;48.358;2.122;2023-04-30T01:46:00;101266.66;;;9.35;81.99
76404;BME280;65232;48.358;2.122;2023-04-30T01:46:29;101272.44;;;9.29;82.35
76404;BME280;65232;48.358;2.122;2023-04-30T01:47:08;101274.25;;;9.29;82.54
76404;BME280;65232;48.358;2.122;2023-04-30T01:50:48;101269.47;;;9.34;82.00
76404;BME280;65232;48.358;2.122;2023-04-30T01:51:20;101273.50;;;9.27;82.09
76404;BME280;65232;48.358;2.122;2023-04-30T01:51:47;101278.84;;;9.27;82.26
76404;BME280;65232;48.358;2.122;2023-04-30T01:52:31;101271.38;;;9.19;82.52
76404;BME280;65232;48.358;2.122;2023-04-30T01:52:59;101269.56;;;9.19;82.48
76404;BME280;65232;48.358;2.122;2023-04-30T01:53:33;101274.25;;;9.16;82.40
76404;BME280;65232;48.358;2.122;2023-04-30T01:54:11;101269.22;;;9.11;82.82
76404;BME280;65232;48.358;2.122;2023-04-30T01:54:47;101274.16;;;9.17;82.71
76404;BME280;65232;48.358;2.122;2023-04-30T01:56:04;101278.41;;;9.20;82.62
76404;BME280;65232;48.358;2.122;2023-04-30T01:56:40;101273.31;;;9.17;82.60
76404;BME280;65232;48.358;2.122;2023-04-30T01:57:12;101278.94;;;9.12;82.48
76404;BME280;65232;48.358;2.122;2023-04-30T01:57:44;101270.84;;;9.14;82.63
76404;BME280;65232;48.358;2.122;2023-04-30T01:58:14;101274.66;;;9.10;82.61
76404;BME280;65232;48.358;2.122;2023-04-30T01:58:40;101273.28;;;9.04;82.47
76404;BME280;65232;48.358;2.122;2023-04-30T01:59:07;101277.44;;;9.08;82.56
76404;BME280;65232;48.358;2.122;2023-04-30T01:59:38;101284.50;;;9.09;82.70
76404;BME280;65232;48.358;2.122;2023-04-30T02:00:05;101268.69;;;9.06;82.71
76404;BME280;65232;48.358;2.122;2023-04-30T02:00:38;101280.13;;;9.08;82.54
76404;BME280;65232;48.358;2.122;2023-04-30T02:01:04;101280.31;;;9.05;82.72
76404;BME280;65232;48.358;2.122;2023-04-30T02:01:31;101281.63;;;9.00;82.65
76404;BME280;65232;48.358;2.122;2023-04-30T02:01:57;101275.22;;;9.02;82.63
76404;BME280;65232;48.358;2.122;2023-04-30T02:02:22;101279.81;;;9.00;82.67
76404;BME280;65232;48.358;2.122;2023-04-30T02:02:47;101285.03;;;9.02;82.65
76404;BME280;65232;48.358;2.122;2023-04-30T02:03:14;101282.47;;;9.00;82.71
76404;BME280;65232;48.358;2.122;2023-04-30T02:03:40;101280.66;;;9.01;82.62
76404;BME280;65232;48.358;2.122;2023-04-30T02:04:05;101276.47;;;8.97;82.46
76404;BME280;65232;48.358;2.122;2023-04-30T02:04:31;101286.41;;;8.95;82.69
76404;BME280;65232;48.358;2.122;2023-04-30T02:04:56;101279.91;;;8.99;82.68
76404;BME280;65232;48.358;2.122;2023-04-30T02:05:22;101279.59;;;9.03;82.54
76404;BME280;65232;48.358;2.122;2023-04-30T02:05:49;101275.97;;;9.04;82.55
76404;BME280;65232;48.358;2.122;2023-04-30T02:06:14;101274.47;;;9.00;82.59
76404;BME280;65232;48.358;2.122;2023-04-30T02:06:40;101275.41;;;8.99;82.61
76404;BME280;65232;48.358;2.122;2023-04-30T02:07:05;101277.03;;;9.02;82.63
76404;BME280;65232;48.358;2.122;2023-04-30T02:07:45;101276.59;;;9.08;82.38
76404;BME280;65232;48.358;2.122;2023-04-30T02:08:11;101276.69;;;9.06;82.32
76404;BME280;65232;48.358;2.122;2023-04-30T02:08:37;101278.09;;;9.12;82.27
76404;BME280;65232;48.358;2.122;2023-04-30T02:09:02;101275.72;;;9.07;82.33
76404;BME280;65232;48.358;2.122;2023-04-30T02:09:30;101273.28;;;9.04;82.51
76404;BME280;65232;48.358;2.122;2023-04-30T02:09:55;101276.94;;;9.03;82.30
76404;BME280;65232;48.358;2.122;2023-04-30T02:10:23;101274.47;;;9.00;82.63
76404;BME280;65232;48.358;2.122;2023-04-30T02:10:49;101276.06;;;9.03;82.47
76404;BME280;65232;48.358;2.122;2023-04-30T02:11:14;101274.97;;;9.05;82.45
76404;BME280;65232;48.358;2.122;2023-04-30T02:11:40;101269.13;;;9.00;82.77
76404;BME280;65232;48.358;2.122;2023-04-30T02:12:06;101276.94;;;9.03;82.98
76404;BME280;65232;48.358;2.122;2023-04-30T02:12:32;101277.66;;;9.05;82.79
76404;BME280;65232;48.358;2.122;2023-04-30T02:12:57;101276.94;;;9.03;82.94
76404;BME280;65232;48.358;2.122;2023-04-30T02:13:23;101275.97;;;9.04;82.69
76404;BME280;65232;48.358;2.122;2023-04-30T02:13:48;101274.25;;;9.03;82.84
76404;BME280;65232;48.358;2.122;2023-04-30T02:14:13;101276.94;;;9.03;82.88
76404;BME280;65232;48.358;2.122;2023-04-30T02:14:39;101278.31;;;9.09;82.61
76404;BME280;65232;48.358;2.122;2023-04-30T02:15:05;101278.41;;;9.07;82.42
76404;BME280;65232;48.358;2.122;2023-04-30T02:15:31;101275.63;;;9.09;82.53
76404;BME280;65232;48.358;2.122;2023-04-30T02:15:56;101271.47;;;9.05;82.47
76404;BME280;65232;48.358;2.122;2023-04-30T02:16:22;101273.06;;;9.07;82.33
76404;BME280;65232;48.358;2.122;2023-04-30T02:16:48;101276.16;;;9.01;82.77
76404;BME280;65232;48.358;2.122;2023-04-30T02:17:13;101272.75;;;8.99;82.66
76404;BME280;65232;48.358;2.122;2023-04-30T02:17:38;101285.03;;;9.02;82.55
76404;BME280;65232;48.358;2.122;2023-04-30T02:18:04;101276.06;;;9.03;82.49
76404;BME280;65232;48.358;2.122;2023-04-30T02:18:30;101274.78;;;9.08;82.29
76404;BME280;65232;48.358;2.122;2023-04-30T02:18:55;101275.63;;;9.09;82.20
76404;BME280;65232;48.358;2.122;2023-04-30T02:19:21;101276.50;;;9.09;82.01
76404;BME280;65232;48.358;2.122;2023-04-30T02:19:46;101278.50;;;9.06;82.11
76404;BME280;65232;48.358;2.122;2023-04-30T02:20:12;101281.06;;;9.07;82.22
76404;BME280;65232;48.358;2.122;2023-04-30T02:20:37;101278.63;;;9.04;82.29
76404;BME280;65232;48.358;2.122;2023-04-30T02:21:03;101280.84;;;8.98;82.21
76404;BME280;65232;48.358;2.122;2023-04-30T02:21:28;101278.84;;;9.01;82.53
76404;BME280;65232;48.358;2.122;2023-04-30T02:21:54;101277.88;;;9.02;82.55
76404;BME280;65232;48.358;2.122;2023-04-30T02:22:19;101270.50;;;9.06;82.38
76404;BME280;65232;48.358;2.122;2023-04-30T02:22:45;101279.25;;;9.08;82.41
76404;BME280;65232;48.358;2.122;2023-04-30T02:23:10;101279.50;;;9.05;82.40
76404;BME280;65232;48.358;2.122;2023-04-30T02:23:36;101273.16;;;9.06;82.42
76404;BME280;65232;48.358;2.122;2023-04-30T02:24:01;101277.03;;;9.02;82.50
76404;BME280;65232;48.358;2.122;2023-04-30T02:24:27;101275.22;;;9.02;82.61
76404;BME280;65232;48.358;2.122;2023-04-30T02:24:52;101283.22;;;9.02;82.77
76404;BME280;65232;48.358;2.122;2023-04-30T02:25:19;101278.00;;;9.01;82.65
76404;BME280;65232;48.358;2.122;2023-04-30T02:25:45;101279.91;;;8.99;82.77
76404;BME280;65232;48.358;2.122;2023-04-30T02:26:10;101279.81;;;9.00;82.67
76404;BME280;65232;48.358;2.122;2023-04-30T02:26:36;101280.84;;;8.98;82.64
76404;BME280;65232;48.358;2.122;2023-04-30T02:27:01;101282.78;;;8.96;82.59
76404;BME280;65232;48.358;2.122;2023-04-30T02:27:29;101284.19;;;9.01;82.71
76404;BME280;65232;48.358;2.122;2023-04-30T02:27:55;101280.56;;;9.02;82.59
76404;BME280;65232;48.358;2.122;2023-04-30T02:28:20;101284.94;;;9.03;82.57
76404;BME280;65232;48.358;2.122;2023-04-30T02:28:46;101277.13;;;9.00;82.57
76404;BME280;65232;48.358;2.122;2023-04-30T02:29:11;101281.31;;;9.04;82.48
76404;BME280;65232;48.358;2.122;2023-04-30T02:29:37;101290.59;;;8.99;82.80
76404;BME280;65232;48.358;2.122;2023-04-30T02:30:03;101277.34;;;8.97;82.88
76404;BME280;65232;48.358;2.122;2023-04-30T02:30:28;101278.28;;;8.96;82.92
76404;BME280;65232;48.358;2.122;2023-04-30T02:30:54;101284.59;;;8.95;83.09
76404;BME280;65232;48.358;2.122;2023-04-30T02:31:20;101281.81;;;8.97;83.41
76404;BME280;65232;48.358;2.122;2023-04-30T02:31:45;101285.34;;;8.97;83.07
76404;BME280;65232;48.358;2.122;2023-04-30T02:32:11;101286.31;;;8.96;83.34
76404;BME280;65232;48.358;2.122;2023-04-30T02:32:36;101283.84;;;8.93;83.61
76404;BME280;65232;48.358;2.122;2023-04-30T02:33:02;101278.19;;;8.98;83.28
76404;BME280;65232;48.358;2.122;2023-04-30T02:33:28;101281.81;;;8.97;83.13
76404;BME280;65232;48.358;2.122;2023-04-30T02:33:53;101285.34;;;8.97;83.33
76404;BME280;65232;48.358;2.122;2023-04-30T02:34:19;101275.81;;;8.93;83.37
76404;BME280;65232;48.358;2.122;2023-04-30T02:34:45;101284.06;;;8.90;83.50
76404;BME280;65232;48.358;2.122;2023-04-30T02:35:10;101284.78;;;8.92;83.46
76404;BME280;65232;48.358;2.122;2023-04-30T02:35:36;101282.97;;;8.93;83.37
76404;BME280;65232;48.358;2.122;2023-04-30T02:36:01;101290.22;;;8.91;83.54
76404;BME280;65232;48.358;2.122;2023-04-30T02:36:27;101284.59;;;8.95;83.33
76404;BME280;65232;48.358;2.122;2023-04-30T02:36:52;101279.34;;;8.94;83.16
76404;BME280;65232;48.358;2.122;2023-04-30T02:37:17;101282.88;;;8.94;83.37
76404;BME280;65232;48.358;2.122;2023-04-30T02:37:43;101279.91;;;8.99;83.18
76404;BME280;65232;48.358;2.122;2023-04-30T02:38:08;101283.13;;;9.04;83.17
76404;BME280;65232;48.358;2.122;2023-04-30T02:38:34;101287.91;;;8.99;82.83
76404;BME280;65232;48.358;2.122;2023-04-30T02:38:59;101290.38;;;9.02;83.19
76404;BME280;65232;48.358;2.122;2023-04-30T02:39:25;101290.59;;;8.99;83.25
76404;BME280;65232;48.358;2.122;2023-04-30T02:39:52;101286.09;;;8.99;83.11
76404;BME280;65232;48.358;2.122;2023-04-30T02:40:17;101284.59;;;8.95;83.14